Time;durP1;ratioP1;P1;durP2;ratioP2;P2;SDS_P1;SDS_P2;PMS_P1;PMS_P2;Temp;Humidity;BMP_temperature;BMP_pressure;BME280_temperature;BME280_humidity;BME280_pressure;Samples;Min_cycle;Max_cycle;Signal;HPM_P1;HPM_P2
2023/11/03 00:01:14;;;;;;;4.03;0.90;;;10.80;1.00;;;;;;5089938;28;20440;-80
2023/11/03 00:03:41;;;;;;;5.93;1.27;;;10.80;1.00;;;;;;5088082;28;20439;-80
2023/11/03 00:06:08;;;;;;;4.97;1.57;;;10.70;1.00;;;;;;5093639;28;20197;-79
2023/11/03 00:08:34;;;;;;;2.27;0.97;;;10.70;1.00;;;;;;5093495;28;20194;-79
2023/11/03 00:11:04;;;;;;;3.83;0.80;;;10.70;1.00;;;;;;5086341;28;20229;-79
2023/11/03 00:13:32;;;;;;;2.53;1.00;;;10.60;1.00;;;;;;5095214;28;20197;-79
2023/11/03 00:16:00;;;;;;;5.43;1.13;;;10.50;1.00;;;;;;5089557;28;20202;-80
2023/11/03 00:18:29;;;;;;;8.70;3.00;;;10.60;1.00;;;;;;5096452;28;20292;-80
2023/11/03 00:20:56;;;;;;;5.33;1.17;;;10.60;1.00;;;;;;5096106;28;20724;-79
2023/11/03 00:23:23;;;;;;;3.57;1.07;;;10.40;1.00;;;;;;5096188;28;20312;-79
2023/11/03 00:25:50;;;;;;;4.10;1.40;;;10.40;1.00;;;;;;5093709;28;20235;-80
2023/11/03 00:28:17;;;;;;;4.80;0.97;;;10.40;1.00;;;;;;5085541;28;20294;-79
2023/11/03 00:30:44;;;;;;;5.60;1.27;;;10.40;1.00;;;;;;5090364;28;20225;-79
2023/11/03 00:33:14;;;;;;;3.43;1.13;;;10.30;1.00;;;;;;5091752;28;20653;-78
2023/11/03 00:35:43;;;;;;;3.80;1.10;;;10.30;1.00;;;;;;5091573;28;20283;-79
2023/11/03 00:38:10;;;;;;;3.67;1.30;;;10.30;1.00;;;;;;5094059;28;20198;-79
2023/11/03 00:40:37;;;;;;;5.07;1.20;;;10.30;1.00;;;;;;5087957;28;20218;-79
2023/11/03 00:43:04;;;;;;;2.13;0.93;;;10.40;1.00;;;;;;5084274;28;20215;-80
2023/11/03 00:45:30;;;;;;;4.57;0.83;;;10.40;1.00;;;;;;5086044;28;20309;-79
2023/11/03 00:47:57;;;;;;;2.90;1.37;;;10.40;1.00;;;;;;5089266;28;20200;-79
2023/11/03 00:50:24;;;;;;;2.23;0.87;;;10.20;1.00;;;;;;5082117;28;20232;-79
2023/11/03 00:52:52;;;;;;;3.10;1.07;;;10.30;1.00;;;;;;5093963;28;20205;-79
2023/11/03 00:55:19;;;;;;;2.63;0.87;;;10.40;1.00;;;;;;5088640;28;20213;-79
2023/11/03 00:57:46;;;;;;;2.87;1.03;;;10.20;1.00;;;;;;5094594;28;20289;-80
2023/11/03 01:00:13;;;;;;;4.03;0.77;;;10.10;1.00;;;;;;5093174;28;20318;-79
2023/11/03 01:02:41;;;;;;;6.37;1.53;;;10.20;1.00;;;;;;5089986;28;20288;-79
2023/11/03 01:05:10;;;;;;;2.70;0.90;;;10.20;1.00;;;;;;5088829;28;20243;-79
2023/11/03 01:07:37;;;;;;;6.27;1.57;;;10.10;1.00;;;;;;5089889;28;20205;-79
2023/11/03 01:10:07;;;;;;;4.03;0.87;;;10.10;1.00;;;;;;5094218;28;20221;-79
2023/11/03 01:12:34;;;;;;;6.30;1.47;;;10.20;1.00;;;;;;5091836;28;20567;-79
2023/11/03 01:15:03;;;;;;;4.60;1.33;;;10.10;1.00;;;;;;5093365;28;20199;-79
2023/11/03 01:17:30;;;;;;;3.87;0.90;;;10.00;1.00;;;;;;5092192;28;20211;-79
2023/11/03 01:19:57;;;;;;;6.23;1.30;;;10.10;1.00;;;;;;5087071;28;20708;-79
2023/11/03 01:22:24;;;;;;;4.63;1.00;;;10.10;1.00;;;;;;5094448;28;20221;-79
2023/11/03 01:24:52;;;;;;;5.00;1.10;;;10.10;1.00;;;;;;5093170;28;20202;-79
2023/11/03 01:27:20;;;;;;;3.10;1.23;;;10.00;1.00;;;;;;5091423;28;20255;-79
2023/11/03 01:29:48;;;;;;;4.77;1.40;;;9.90;1.00;;;;;;5094397;28;20236;-79
2023/11/03 01:32:18;;;;;;;4.87;1.47;;;9.80;1.00;;;;;;5094072;28;20284;-79
2023/11/03 01:34:45;;;;;;;6.40;1.03;;;9.60;1.00;;;;;;5094179;28;20202;-79
2023/11/03 01:37:13;;;;;;;4.10;0.90;;;9.60;1.00;;;;;;5094393;28;20198;-80
2023/11/03 01:39:40;;;;;;;3.47;0.90;;;9.60;1.00;;;;;;5093879;28;20221;-80
2023/11/03 01:42:07;;;;;;;4.97;1.27;;;9.70;1.00;;;;;;5094168;28;20235;-80
2023/11/03 01:44:35;;;;;;;4.60;1.20;;;9.70;1.00;;;;;;5094325;28;20197;-80
2023/11/03 01:47:03;;;;;;;6.93;1.50;;;9.60;1.00;;;;;;5094901;28;20202;-80
2023/11/03 01:49:30;;;;;;;5.23;1.13;;;9.60;1.00;;;;;;5093398;28;20225;-80
2023/11/03 01:51:57;;;;;;;8.40;1.40;;;9.60;1.00;;;;;;5086343;28;20190;-79
2023/11/03 01:54:24;;;;;;;8.10;1.97;;;9.70;1.00;;;;;;5094599;28;20197;-80
2023/11/03 01:56:51;;;;;;;5.40;1.00;;;9.60;1.00;;;;;;5092184;28;20213;-80
2023/11/03 01:59:20;;;;;;;7.30;2.30;;;9.50;1.00;;;;;;5081537;28;20286;-80
2023/11/03 02:01:51;;;;;;;4.43;1.17;;;9.60;1.00;;;;;;5092192;28;20670;-80
2023/11/03 02:04:18;;;;;;;5.30;1.30;;;9.50;1.00;;;;;;5088661;28;20731;-79
2023/11/03 02:06:45;;;;;;;5.37;1.20;;;9.50;1.00;;;;;;5093181;28;20636;-79
2023/11/03 02:09:12;;;;;;;3.43;1.27;;;9.50;1.00;;;;;;5093530;28;20221;-79
2023/11/03 02:11:43;;;;;;;7.07;1.43;;;9.50;1.00;;;;;;5092017;28;20201;-79
2023/11/03 02:14:10;;;;;;;9.40;1.57;;;9.60;1.00;;;;;;5093228;28;20205;-80
2023/11/03 02:16:37;;;;;;;6.30;1.30;;;9.70;1.00;;;;;;5093881;28;20204;-80
2023/11/03 02:19:08;;;;;;;2.50;1.00;;;9.60;1.00;;;;;;5086395;28;20197;-79
2023/11/03 02:21:36;;;;;;;4.37;1.40;;;9.50;1.00;;;;;;5085222;28;20228;-80
2023/11/03 02:24:05;;;;;;;6.00;1.30;;;9.50;1.00;;;;;;5082023;28;20246;-80
2023/11/03 02:26:32;;;;;;;12.53;1.63;;;9.60;1.00;;;;;;5082866;28;20212;-80
2023/11/03 02:28:58;;;;;;;6.57;1.60;;;9.50;1.00;;;;;;5080693;28;20202;-79
2023/11/03 02:31:25;;;;;;;7.27;1.80;;;9.50;1.00;;;;;;5088614;28;20201;-79
2023/11/03 02:33:52;;;;;;;6.70;1.20;;;9.30;1.00;;;;;;5087675;28;22297;-79
2023/11/03 02:36:19;;;;;;;5.67;1.07;;;9.30;1.00;;;;;;5091508;28;20198;-80
2023/11/03 02:38:46;;;;;;;4.40;1.13;;;9.30;1.00;;;;;;5087481;28;20201;-80
2023/11/03 02:41:14;;;;;;;5.63;1.50;;;9.30;1.00;;;;;;5084781;28;20208;-79
2023/11/03 02:43:41;;;;;;;7.80;1.47;;;9.40;1.00;;;;;;5086242;28;20600;-79
2023/11/03 02:46:08;;;;;;;5.20;1.57;;;9.40;1.00;;;;;;5089562;28;20224;-79
2023/11/03 02:48:35;;;;;;;7.50;1.40;;;9.50;1.00;;;;;;5089559;28;20201;-79
2023/11/03 02:51:03;;;;;;;3.80;1.37;;;9.30;1.00;;;;;;5080524;28;20304;-79
2023/11/03 02:53:30;;;;;;;6.67;1.90;;;9.30;1.00;;;;;;5089172;28;20209;-79
2023/11/03 02:55:57;;;;;;;4.77;1.27;;;9.20;1.00;;;;;;5092730;28;20220;-79
2023/11/03 02:58:28;;;;;;;5.80;1.57;;;9.30;1.00;;;;;;5085291;28;20537;-79
2023/11/03 03:00:55;;;;;;;5.00;1.17;;;9.20;1.00;;;;;;5080772;28;20218;-79
2023/11/03 03:03:21;;;;;;;3.87;1.47;;;9.30;1.00;;;;;;5088010;28;20221;-79
2023/11/03 03:05:48;;;;;;;5.70;1.40;;;9.40;1.00;;;;;;5093218;28;20722;-79
2023/11/03 03:08:15;;;;;;;4.97;1.60;;;9.30;1.00;;;;;;5080121;28;20202;-80
2023/11/03 03:10:42;;;;;;;5.43;1.40;;;9.50;1.00;;;;;;5084407;28;20222;-80
2023/11/03 03:13:08;;;;;;;6.33;1.20;;;9.40;1.00;;;;;;5092438;28;20581;-79
2023/11/03 03:15:37;;;;;;;5.07;1.60;;;9.50;1.00;;;;;;5082124;28;20194;-80
2023/11/03 03:18:04;;;;;;;9.03;1.50;;;9.50;1.00;;;;;;5093203;28;20197;-80
2023/11/03 03:20:30;;;;;;;3.40;1.33;;;9.40;1.00;;;;;;5092759;28;20225;-80
2023/11/03 03:22:57;;;;;;;5.43;1.43;;;9.30;1.00;;;;;;5093322;28;20218;-79
2023/11/03 03:25:24;;;;;;;6.47;1.60;;;9.40;1.00;;;;;;5093208;28;20197;-80
2023/11/03 03:27:53;;;;;;;4.43;0.83;;;9.30;1.00;;;;;;5093013;28;20247;-79
2023/11/03 03:30:20;;;;;;;5.43;1.00;;;9.30;1.00;;;;;;5093034;28;20218;-79
2023/11/03 03:32:48;;;;;;;8.47;1.30;;;9.20;1.00;;;;;;5093596;28;20284;-79
2023/11/03 03:35:15;;;;;;;5.77;1.10;;;9.20;1.00;;;;;;5093582;28;20200;-80
2023/11/03 03:37:41;;;;;;;6.77;1.50;;;9.20;1.00;;;;;;5092913;28;20202;-79
2023/11/03 03:40:09;;;;;;;4.80;1.57;;;9.10;1.00;;;;;;5093614;28;20224;-80
2023/11/03 03:42:36;;;;;;;9.30;1.70;;;9.10;1.00;;;;;;5092614;28;20731;-79
2023/11/03 03:45:03;;;;;;;6.77;1.60;;;9.00;1.00;;;;;;5093889;28;20216;-79
2023/11/03 03:47:30;;;;;;;4.13;1.20;;;9.10;1.00;;;;;;5092363;28;20210;-80
2023/11/03 03:49:59;;;;;;;6.03;1.20;;;9.20;1.00;;;;;;5090819;28;20304;-80
2023/11/03 03:52:25;;;;;;;5.60;1.30;;;9.20;1.00;;;;;;5093232;28;20200;-79
2023/11/03 03:54:52;;;;;;;6.67;1.63;;;9.20;1.00;;;;;;5095744;28;20216;-80
2023/11/03 03:57:19;;;;;;;4.80;1.07;;;9.20;1.00;;;;;;5094446;28;20210;-80
2023/11/03 03:59:46;;;;;;;3.73;1.40;;;9.20;1.00;;;;;;5091976;28;20704;-80
2023/11/03 04:02:13;;;;;;;6.67;1.30;;;9.10;1.00;;;;;;5085433;28;20202;-80
2023/11/03 04:04:39;;;;;;;5.77;1.60;;;9.00;1.00;;;;;;5090501;28;20198;-79
2023/11/03 04:07:08;;;;;;;6.40;1.63;;;9.10;1.00;;;;;;5096280;28;20280;-79
2023/11/03 04:09:35;;;;;;;7.67;1.33;;;9.10;1.00;;;;;;5091319;28;20245;-79
2023/11/03 04:12:01;;;;;;;6.30;1.50;;;9.10;1.00;;;;;;5085880;28;20232;-78
2023/11/03 04:14:28;;;;;;;8.50;1.70;;;9.10;1.00;;;;;;5094173;28;20557;-79
2023/11/03 04:16:55;;;;;;;4.73;1.70;;;9.10;1.00;;;;;;5091982;28;20570;-78
2023/11/03 04:19:22;;;;;;;3.67;1.13;;;9.00;1.00;;;;;;5091081;28;20221;-79
2023/11/03 04:21:49;;;;;;;4.20;1.27;;;9.00;1.00;;;;;;5095926;28;20300;-78
2023/11/03 04:24:17;;;;;;;2.77;1.10;;;9.10;1.00;;;;;;5085674;28;20710;-79
2023/11/03 04:26:44;;;;;;;4.53;1.40;;;9.10;1.00;;;;;;5089209;28;20210;-78
2023/11/03 04:29:11;;;;;;;5.87;1.40;;;9.00;1.00;;;;;;5091652;28;20493;-78
2023/11/03 04:31:38;;;;;;;8.13;1.13;;;9.10;1.00;;;;;;5085654;28;20209;-79
2023/11/03 04:34:05;;;;;;;4.60;1.50;;;9.10;1.00;;;;;;5091805;28;20206;-79
2023/11/03 04:36:31;;;;;;;4.83;1.33;;;9.10;1.00;;;;;;5094079;28;20208;-79
2023/11/03 04:38:58;;;;;;;2.90;1.00;;;9.10;1.00;;;;;;5093306;28;20220;-79
2023/11/03 04:41:28;;;;;;;8.23;1.67;;;9.00;1.00;;;;;;5094150;28;20665;-80
2023/11/03 04:43:54;;;;;;;6.33;1.90;;;9.00;1.00;;;;;;5091324;28;20722;-80
2023/11/03 04:46:22;;;;;;;8.47;1.80;;;9.00;1.00;;;;;;5093258;28;20218;-80
2023/11/03 04:48:49;;;;;;;7.20;1.30;;;9.00;1.00;;;;;;5094903;28;20672;-80
2023/11/03 04:51:16;;;;;;;5.33;1.30;;;9.10;1.00;;;;;;5094717;28;20312;-80
2023/11/03 04:53:44;;;;;;;7.30;2.27;;;9.10;1.00;;;;;;5094515;28;20251;-80
2023/11/03 04:56:11;;;;;;;9.97;1.43;;;9.10;1.00;;;;;;5094317;28;20611;-80
2023/11/03 04:58:39;;;;;;;2.03;1.07;;;9.20;1.00;;;;;;5094167;28;20577;-79
2023/11/03 05:01:06;;;;;;;5.37;1.73;;;9.10;1.00;;;;;;5095757;28;20218;-81
2023/11/03 05:03:32;;;;;;;5.00;1.20;;;9.10;1.00;;;;;;5101081;28;20244;-80
2023/11/03 05:06:00;;;;;;;5.50;1.67;;;9.00;1.00;;;;;;5102248;28;20202;-80
2023/11/03 05:08:27;;;;;;;4.83;1.07;;;9.10;1.00;;;;;;5099547;28;20296;-80
2023/11/03 05:10:53;;;;;;;6.03;1.50;;;9.20;1.00;;;;;;5089692;28;20277;-82
2023/11/03 05:13:20;;;;;;;4.77;1.20;;;9.20;1.00;;;;;;5102956;28;20201;-83
2023/11/03 05:15:49;;;;;;;7.03;1.57;;;9.10;1.00;;;;;;5106450;28;20206;-81
2023/11/03 05:18:15;;;;;;;5.87;1.50;;;9.10;1.00;;;;;;5103958;28;20197;-80
2023/11/03 05:20:43;;;;;;;3.83;0.93;;;9.20;1.00;;;;;;5103450;27;20213;-80
2023/11/03 05:23:10;;;;;;;3.50;1.30;;;9.20;1.00;;;;;;5109663;28;20312;-81
2023/11/03 05:25:37;;;;;;;6.43;1.20;;;9.20;1.00;;;;;;5101556;28;20198;-81
2023/11/03 05:28:04;;;;;;;8.57;1.63;;;9.20;1.00;;;;;;5099379;28;20197;-82
2023/11/03 05:30:30;;;;;;;4.07;1.07;;;9.20;1.00;;;;;;5109325;28;20221;-81
2023/11/03 05:32:59;;;;;;;3.90;1.33;;;9.30;1.00;;;;;;5103647;28;20192;-81
2023/11/03 05:35:28;;;;;;;4.77;1.00;;;9.20;1.00;;;;;;5105629;28;20252;-80
2023/11/03 05:37:54;;;;;;;5.80;1.20;;;9.20;1.00;;;;;;5101073;28;20202;-80
2023/11/03 05:40:21;;;;;;;4.87;1.47;;;9.10;1.00;;;;;;5087601;28;20270;-80
2023/11/03 05:42:48;;;;;;;5.63;1.43;;;9.10;1.00;;;;;;5083645;28;20229;-80
2023/11/03 05:45:15;;;;;;;4.87;1.20;;;9.10;1.00;;;;;;5075769;28;20217;-80
2023/11/03 05:47:42;;;;;;;4.93;1.30;;;9.20;1.00;;;;;;5092653;28;20206;-80
2023/11/03 05:50:11;;;;;;;4.87;1.00;;;9.20;1.00;;;;;;5089307;28;20731;-79
2023/11/03 05:52:38;;;;;;;2.73;1.00;;;9.20;1.00;;;;;;5085536;28;20202;-79
2023/11/03 05:55:06;;;;;;;5.00;1.77;;;9.20;1.00;;;;;;5096094;28;20288;-79
2023/11/03 05:57:33;;;;;;;7.53;1.20;;;9.20;1.00;;;;;;5096495;28;20201;-79
2023/11/03 05:59:59;;;;;;;3.40;0.97;;;9.20;1.00;;;;;;5086548;28;20742;-80
2023/11/03 06:02:26;;;;;;;5.87;1.60;;;9.20;1.00;;;;;;5087146;28;20301;-80
2023/11/03 06:04:53;;;;;;;4.03;1.33;;;9.10;1.00;;;;;;5091716;28;20235;-79
2023/11/03 06:07:21;;;;;;;4.50;1.10;;;9.10;1.00;;;;;;5099107;28;20229;-78
2023/11/03 06:09:48;;;;;;;3.73;1.20;;;9.10;1.00;;;;;;5095594;28;20234;-80
2023/11/03 06:12:15;;;;;;;3.37;2.93;;;9.10;1.00;;;;;;5079149;28;20217;-82
2023/11/03 06:14:42;;;;;;;9.53;4.27;;;9.10;1.00;;;;;;5088693;28;20215;-81
2023/11/03 06:17:08;;;;;;;8.73;2.60;;;9.10;1.00;;;;;;5093460;28;20302;-80
2023/11/03 06:19:35;;;;;;;4.73;1.30;;;9.10;1.00;;;;;;5088220;28;20313;-80
2023/11/03 06:22:02;;;;;;;5.27;1.07;;;9.20;1.00;;;;;;5099406;28;20695;-80
2023/11/03 06:24:30;;;;;;;4.20;1.40;;;9.10;1.00;;;;;;5098809;28;20274;-81
2023/11/03 06:26:59;;;;;;;4.53;2.50;;;9.30;1.00;;;;;;5082873;28;20213;-81
2023/11/03 06:29:26;;;;;;;6.93;1.10;;;9.20;1.00;;;;;;5097702;28;20325;-82
2023/11/03 06:31:53;;;;;;;2.87;1.10;;;9.20;1.00;;;;;;5088858;28;20224;-81
2023/11/03 06:34:20;;;;;;;4.13;1.03;;;9.20;1.00;;;;;;5097694;28;20286;-80
2023/11/03 06:36:47;;;;;;;4.13;0.90;;;9.20;1.00;;;;;;5086734;28;20208;-80
2023/11/03 06:39:17;;;;;;;3.93;1.10;;;9.20;1.00;;;;;;5077696;28;20277;-81
2023/11/03 06:41:46;;;;;;;7.47;1.40;;;9.30;1.00;;;;;;5078207;28;20206;-81
2023/11/03 06:44:13;;;;;;;3.93;1.20;;;9.30;1.00;;;;;;5091962;28;20312;-79
2023/11/03 06:46:41;;;;;;;7.23;1.27;;;9.30;1.00;;;;;;5098559;28;20304;-80
2023/11/03 06:49:08;;;;;;;2.67;1.13;;;9.30;1.00;;;;;;5092710;28;20237;-80
2023/11/03 06:51:35;;;;;;;6.13;1.30;;;9.40;1.00;;;;;;5087455;28;20225;-79
2023/11/03 06:54:02;;;;;;;5.97;1.27;;;9.60;1.00;;;;;;5096091;28;20206;-79
2023/11/03 06:56:29;;;;;;;1.47;0.70;;;9.60;1.00;;;;;;5088882;28;20210;-80
2023/11/03 06:58:57;;;;;;;5.00;1.00;;;9.70;1.00;;;;;;5096974;28;20220;-81
2023/11/03 07:01:25;;;;;;;5.97;1.40;;;9.60;1.00;;;;;;5096800;28;20212;-81
2023/11/03 07:03:52;;;;;;;3.63;0.87;;;9.60;1.00;;;;;;5097629;28;20225;-81
2023/11/03 07:06:20;;;;;;;5.33;1.10;;;9.60;1.00;;;;;;5097355;28;20205;-81
2023/11/03 07:08:47;;;;;;;4.77;1.63;;;9.60;1.00;;;;;;5096768;28;20255;-79
2023/11/03 07:11:14;;;;;;;1.87;1.00;;;9.70;1.00;;;;;;5096916;28;20205;-80
2023/11/03 07:13:43;;;;;;;5.43;1.00;;;9.70;1.00;;;;;;5096595;28;20212;-80
2023/11/03 07:16:12;;;;;;;5.00;1.60;;;9.60;1.00;;;;;;5097048;28;20223;-79
2023/11/03 07:18:40;;;;;;;2.77;1.00;;;9.70;1.00;;;;;;5097110;28;20247;-81
2023/11/03 07:21:09;;;;;;;6.23;1.13;;;9.70;1.00;;;;;;5098098;28;20226;-80
2023/11/03 07:23:36;;;;;;;5.70;1.10;;;9.70;1.00;;;;;;5101737;28;20245;-79
2023/11/03 07:26:03;;;;;;;6.90;1.27;;;9.70;1.00;;;;;;5101210;28;20202;-80
2023/11/03 07:28:30;;;;;;;2.27;1.07;;;9.80;1.00;;;;;;5094035;28;20207;-80
2023/11/03 07:30:57;;;;;;;2.23;0.90;;;9.80;1.00;;;;;;5098356;28;20230;-80
2023/11/03 07:33:26;;;;;;;2.90;1.07;;;9.80;1.00;;;;;;5096875;28;20201;-80
2023/11/03 07:35:54;;;;;;;3.53;1.00;;;9.90;1.00;;;;;;5093196;28;20304;-79
2023/11/03 07:38:20;;;;;;;3.13;1.13;;;9.90;1.00;;;;;;5101696;28;20206;-78
2023/11/03 07:40:47;;;;;;;3.70;1.33;;;10.00;1.00;;;;;;5100031;28;20222;-80
2023/11/03 07:43:14;;;;;;;2.23;0.90;;;10.00;1.00;;;;;;5100521;28;20201;-82
2023/11/03 07:45:41;;;;;;;6.10;1.53;;;10.20;1.00;;;;;;5092560;28;20226;-80
2023/11/03 07:48:08;;;;;;;4.37;1.13;;;10.10;1.00;;;;;;5100815;28;20232;-81
2023/11/03 07:50:36;;;;;;;6.33;1.40;;;10.10;1.00;;;;;;5100020;28;20237;-82
2023/11/03 07:53:03;;;;;;;5.37;1.20;;;10.20;1.00;;;;;;5098608;28;20292;-80
2023/11/03 07:55:30;;;;;;;2.17;1.20;;;10.20;1.00;;;;;;5101976;28;20551;-82
2023/11/03 07:57:57;;;;;;;5.40;1.23;;;10.20;1.00;;;;;;5093305;28;20296;-81
2023/11/03 08:00:24;;;;;;;3.50;1.13;;;10.30;1.00;;;;;;5102004;28;20342;-79
2023/11/03 08:02:50;;;;;;;4.80;1.37;;;10.50;1.00;;;;;;5086305;28;20300;-83
2023/11/03 08:05:20;;;;;;;3.73;1.10;;;10.60;1.00;;;;;;5103291;28;20231;-83
2023/11/03 08:07:50;;;;;;;3.40;1.07;;;10.70;1.00;;;;;;5094300;28;20213;-81
2023/11/03 08:10:17;;;;;;;3.83;0.90;;;10.70;1.00;;;;;;5092928;28;20610;-79
2023/11/03 08:12:43;;;;;;;5.80;1.27;;;10.70;1.00;;;;;;5099239;28;20664;-80
2023/11/03 08:15:10;;;;;;;5.30;1.20;;;10.70;1.00;;;;;;5095399;28;20558;-80
2023/11/03 08:17:38;;;;;;;5.50;1.03;;;10.70;1.00;;;;;;5101928;28;20209;-79
2023/11/03 08:20:07;;;;;;;3.20;0.90;;;10.70;1.00;;;;;;5101808;28;20226;-79
2023/11/03 08:22:34;;;;;;;2.90;1.20;;;10.70;1.00;;;;;;5101883;28;20692;-79
2023/11/03 08:25:03;;;;;;;5.03;1.10;;;10.70;1.00;;;;;;5100588;28;20217;-78
2023/11/03 08:27:30;;;;;;;3.13;1.10;;;10.70;1.00;;;;;;5102045;28;20224;-82
2023/11/03 08:29:57;;;;;;;2.57;1.13;;;10.70;1.00;;;;;;5102752;28;20222;-80
2023/11/03 08:32:25;;;;;;;4.77;1.10;;;10.80;1.00;;;;;;5101321;28;20277;-81
2023/11/03 08:34:52;;;;;;;5.70;1.40;;;10.80;1.00;;;;;;5101218;28;20220;-82
2023/11/03 08:37:21;;;;;;;5.40;1.03;;;10.90;1.00;;;;;;5102455;28;20316;-82
2023/11/03 08:39:51;;;;;;;7.40;1.20;;;10.90;1.00;;;;;;5101465;28;20241;-82
2023/11/03 08:42:19;;;;;;;4.37;1.00;;;10.90;1.00;;;;;;5101003;28;20197;-82
2023/11/03 08:44:46;;;;;;;4.30;1.57;;;10.90;1.00;;;;;;5099140;28;20784;-82
2023/11/03 08:47:13;;;;;;;5.03;1.30;;;11.00;1.00;;;;;;5090054;28;20228;-81
2023/11/03 08:49:39;;;;;;;5.87;1.20;;;11.00;1.00;;;;;;5092073;28;20238;-80
2023/11/03 08:52:07;;;;;;;5.53;1.10;;;11.00;1.00;;;;;;5100280;28;20205;-82
2023/11/03 08:54:34;;;;;;;3.90;1.13;;;11.00;1.00;;;;;;5102033;28;20209;-80
2023/11/03 08:57:02;;;;;;;6.17;1.57;;;11.00;1.00;;;;;;5089033;28;20213;-80
2023/11/03 08:59:30;;;;;;;2.77;1.20;;;11.00;1.00;;;;;;5099249;28;20229;-80
2023/11/03 09:01:57;;;;;;;5.07;1.20;;;11.10;1.00;;;;;;5088369;28;20262;-81
2023/11/03 09:04:25;;;;;;;7.83;1.33;;;11.10;1.00;;;;;;5102987;28;20202;-80
2023/11/03 09:06:53;;;;;;;4.43;1.07;;;11.10;1.00;;;;;;5103561;28;20217;-80
2023/11/03 09:09:21;;;;;;;4.77;1.10;;;11.30;1.00;;;;;;5087605;28;20239;-80
2023/11/03 09:11:48;;;;;;;5.50;1.00;;;11.40;1.00;;;;;;5093312;28;20218;-81
2023/11/03 09:14:15;;;;;;;6.00;1.90;;;11.40;1.00;;;;;;5101254;28;20644;-82
2023/11/03 09:16:43;;;;;;;4.37;1.60;;;11.40;1.00;;;;;;5101897;28;20244;-81
2023/11/03 09:19:10;;;;;;;5.07;1.27;;;11.50;1.00;;;;;;5086939;28;20301;-80
2023/11/03 09:21:38;;;;;;;7.37;1.43;;;11.70;1.00;;;;;;5099788;28;20206;-81
2023/11/03 09:24:06;;;;;;;22.13;2.13;;;11.80;1.00;;;;;;5100180;28;20207;-81
2023/11/03 09:26:34;;;;;;;7.70;1.57;;;12.00;1.00;;;;;;5100466;28;20217;-81
2023/11/03 09:29:01;;;;;;;2.33;0.87;;;11.90;1.00;;;;;;5087254;28;20205;-81
2023/11/03 09:31:28;;;;;;;4.90;1.00;;;11.90;1.00;;;;;;5096178;28;20206;-83
2023/11/03 09:33:57;;;;;;;6.57;1.63;;;11.90;1.00;;;;;;5102698;28;20229;-82
2023/11/03 09:36:24;;;;;;;4.87;1.40;;;12.00;1.00;;;;;;5094801;28;20220;-82
2023/11/03 09:38:50;;;;;;;5.77;1.40;;;12.10;1.00;;;;;;5085706;28;20668;-82
2023/11/03 09:41:19;;;;;;;6.53;1.40;;;12.20;1.00;;;;;;5101807;28;20637;-81
2023/11/03 09:43:47;;;;;;;7.53;1.67;;;12.10;99.90;;;;;;5090862;28;20210;-82
2023/11/03 09:46:15;;;;;;;5.10;1.53;;;12.30;1.00;;;;;;5088953;28;20222;-80
2023/11/03 09:48:42;;;;;;;5.03;1.43;;;12.30;99.90;;;;;;5102799;28;20216;-81
2023/11/03 09:51:11;;;;;;;6.57;2.20;;;12.50;99.90;;;;;;5102147;28;20684;-82
2023/11/03 09:53:42;;;;;;;4.37;1.20;;;12.50;99.90;;;;;;5101807;28;20206;-80
2023/11/03 09:56:10;;;;;;;6.40;1.47;;;12.40;99.90;;;;;;5093347;28;20235;-80
2023/11/03 09:58:37;;;;;;;5.33;1.67;;;12.40;99.90;;;;;;5091306;28;20205;-81
2023/11/03 10:01:08;;;;;;;3.67;1.20;;;12.30;99.90;;;;;;5095160;28;20233;-78
2023/11/03 10:03:37;;;;;;;3.93;1.63;;;12.30;99.90;;;;;;5095561;28;20205;-79
2023/11/03 10:06:05;;;;;;;5.37;1.60;;;12.30;99.90;;;;;;5086972;28;20320;-79
2023/11/03 10:08:33;;;;;;;6.87;1.60;;;12.10;99.90;;;;;;5095570;28;20249;-79
2023/11/03 10:11:00;;;;;;;4.67;1.10;;;12.10;99.90;;;;;;5093885;28;20232;-78
2023/11/03 10:13:27;;;;;;;5.17;1.50;;;12.10;99.90;;;;;;5092487;28;20240;-81
2023/11/03 10:15:56;;;;;;;2.50;1.33;;;12.10;99.90;;;;;;5090440;28;20214;-82
2023/11/03 10:18:24;;;;;;;5.80;1.60;;;12.00;99.90;;;;;;5097328;28;20228;-79
2023/11/03 10:20:56;;;;;;;6.07;1.67;;;12.00;99.90;;;;;;5100483;28;20230;-77
2023/11/03 10:23:23;;;;;;;5.73;1.47;;;12.10;1.00;;;;;;5092627;28;20206;-80
2023/11/03 10:25:51;;;;;;;5.20;1.50;;;12.10;1.00;;;;;;5100038;28;20221;-81
2023/11/03 10:28:19;;;;;;;8.00;1.50;;;12.10;1.00;;;;;;5099272;28;20220;-81
2023/11/03 10:30:55;;;;;;;9.47;1.70;;;12.10;99.90;;;;;;5089942;28;20222;-81
2023/11/03 10:33:23;;;;;;;5.93;1.60;;;12.10;99.90;;;;;;5092716;28;20212;-80
2023/11/03 10:35:51;;;;;;;5.90;1.67;;;12.10;99.90;;;;;;5088785;28;20206;-82
2023/11/03 10:38:19;;;;;;;11.83;2.00;;;12.10;1.00;;;;;;5095392;28;20222;-81
2023/11/03 10:40:46;;;;;;;4.73;1.30;;;12.20;1.00;;;;;;5099898;28;20225;-82
2023/11/03 10:43:15;;;;;;;4.17;1.40;;;12.20;99.90;;;;;;5100875;28;20209;-80
2023/11/03 10:45:48;;;;;;;6.00;1.73;;;12.20;99.90;;;;;;5091275;28;20236;-79
2023/11/03 10:48:22;;;;;;;3.70;1.30;;;12.20;99.90;;;;;;5091516;28;20265;-80
2023/11/03 10:50:55;;;;;;;8.53;1.57;;;12.20;1.00;;;;;;5100023;28;20235;-81
2023/11/03 10:53:29;;;;;;;6.20;1.43;;;12.20;1.00;;;;;;5092567;28;20215;-79
2023/11/03 10:56:01;;;;;;;6.60;1.53;;;12.20;1.00;;;;;;5088717;28;20208;-81
2023/11/03 10:58:30;;;;;;;6.27;1.33;;;12.20;99.90;;;;;;5102982;28;20201;-80
2023/11/03 11:01:03;;;;;;;5.47;1.40;;;12.20;1.00;;;;;;5097263;28;20312;-80
2023/11/03 11:03:37;;;;;;;4.93;1.60;;;12.30;1.00;;;;;;5105150;28;20198;-78
2023/11/03 11:06:16;;;;;;;4.63;1.57;;;12.30;1.00;;;;;;5100685;28;20241;-79
2023/11/03 11:08:46;;;;;;;6.23;1.40;;;12.40;1.00;;;;;;5101716;28;20235;-80
2023/11/03 11:11:13;;;;;;;5.20;1.53;;;12.40;1.00;;;;;;5083892;28;20660;-80
2023/11/03 11:13:42;;;;;;;5.77;1.60;;;12.40;1.00;;;;;;5087274;28;20205;-82
2023/11/03 11:16:11;;;;;;;5.37;1.30;;;12.40;1.00;;;;;;5098242;28;20213;-80
2023/11/03 11:18:44;;;;;;;5.47;1.40;;;12.30;1.00;;;;;;5094305;28;20840;-81
2023/11/03 11:21:14;;;;;;;4.67;1.40;;;12.30;1.00;;;;;;5088615;28;20230;-79
2023/11/03 11:23:44;;;;;;;9.07;1.90;;;12.40;1.00;;;;;;5100151;28;20581;-78
2023/11/03 11:26:16;;;;;;;6.90;2.20;;;12.40;1.00;;;;;;5084659;28;20218;-81
2023/11/03 11:28:45;;;;;;;6.23;1.60;;;12.40;1.00;;;;;;5086905;28;20202;-82
2023/11/03 11:31:36;;;;;;;6.77;1.60;;;12.40;1.00;;;;;;5097067;28;20602;-82
2023/11/03 11:34:04;;;;;;;4.80;1.30;;;12.30;1.00;;;;;;5088456;28;20225;-83
2023/11/03 11:36:33;;;;;;;4.13;1.47;;;12.30;1.00;;;;;;5102346;28;20198;-80
2023/11/03 11:39:02;;;;;;;8.07;1.23;;;12.40;1.00;;;;;;5096191;28;20278;-82
2023/11/03 11:41:35;;;;;;;5.47;1.30;;;12.50;1.00;;;;;;5103517;28;20307;-82
2023/11/03 11:44:04;;;;;;;6.73;1.50;;;12.50;1.00;;;;;;5104686;28;20297;-84
2023/11/03 11:46:32;;;;;;;4.63;1.50;;;12.40;1.00;;;;;;5087287;28;20277;-82
2023/11/03 11:49:02;;;;;;;7.30;1.40;;;12.30;1.00;;;;;;5103508;28;20752;-81
2023/11/03 11:51:29;;;;;;;4.00;1.50;;;12.50;1.00;;;;;;5103820;28;20280;-82
2023/11/03 11:54:01;;;;;;;6.33;1.87;;;12.50;1.00;;;;;;5103869;28;20665;-82
2023/11/03 11:56:28;;;;;;;6.97;1.97;;;12.60;1.00;;;;;;5101085;28;20610;-83
2023/11/03 11:58:55;;;;;;;5.10;1.20;;;12.60;1.00;;;;;;5098919;28;20282;-82
2023/11/03 12:01:24;;;;;;;6.33;1.57;;;12.60;1.00;;;;;;5089201;28;20297;-82
2023/11/03 12:03:52;;;;;;;5.20;1.60;;;12.50;1.00;;;;;;5101858;28;20313;-81
2023/11/03 12:06:19;;;;;;;6.13;1.10;;;12.60;1.00;;;;;;5086597;28;20222;-83
2023/11/03 12:08:47;;;;;;;6.23;1.67;;;12.70;1.00;;;;;;5085911;28;20198;-83
2023/11/03 12:11:15;;;;;;;6.43;1.47;;;12.90;1.00;;;;;;5104512;28;20216;-80
2023/11/03 12:13:42;;;;;;;6.93;1.33;;;12.80;1.00;;;;;;5104185;28;20996;-81
2023/11/03 12:16:10;;;;;;;4.60;1.60;;;12.90;1.00;;;;;;5103842;28;20202;-80
2023/11/03 12:18:40;;;;;;;5.53;1.67;;;12.90;1.00;;;;;;5096140;28;20205;-80
2023/11/03 12:21:07;;;;;;;6.13;1.50;;;12.90;1.00;;;;;;5104663;28;20225;-84
2023/11/03 12:23:35;;;;;;;4.57;1.27;;;13.00;1.00;;;;;;5086198;28;20202;-82
2023/11/03 12:26:02;;;;;;;6.87;1.50;;;13.10;1.00;;;;;;5093037;28;20645;-80
2023/11/03 12:28:30;;;;;;;4.00;1.07;;;13.10;1.00;;;;;;5084711;28;20236;-81
2023/11/03 12:30:59;;;;;;;6.70;1.50;;;13.10;1.00;;;;;;5087364;28;20316;-81
2023/11/03 12:33:27;;;;;;;7.20;1.80;;;13.00;1.00;;;;;;5102494;28;20274;-81
2023/11/03 12:35:55;;;;;;;6.70;1.70;;;13.00;1.00;;;;;;5103768;28;20206;-83
2023/11/03 12:38:22;;;;;;;6.23;1.40;;;13.00;1.00;;;;;;5087171;28;20241;-81
2023/11/03 12:40:50;;;;;;;8.47;1.93;;;13.00;1.00;;;;;;5085767;28;20285;-81
2023/11/03 12:43:18;;;;;;;6.10;1.50;;;13.00;1.00;;;;;;5095146;28;20303;-82
2023/11/03 12:45:46;;;;;;;4.97;1.43;;;13.00;1.00;;;;;;5101525;28;20218;-80
2023/11/03 12:48:20;;;;;;;5.17;1.57;;;13.20;1.00;;;;;;5103024;28;20269;-81
2023/11/03 12:50:51;;;;;;;4.20;1.40;;;13.40;1.00;;;;;;5094202;28;20284;-81
2023/11/03 12:53:19;;;;;;;8.27;1.63;;;13.40;1.00;;;;;;5093928;28;20667;-81
2023/11/03 12:55:46;;;;;;;6.57;1.57;;;13.30;1.00;;;;;;5099090;28;20595;-83
2023/11/03 12:58:14;;;;;;;9.77;1.80;;;13.30;1.00;;;;;;5102346;28;20194;-82
2023/11/03 13:00:42;;;;;;;7.90;1.33;;;13.40;1.00;;;;;;5100869;28;21003;-80
2023/11/03 13:03:08;;;;;;;5.60;1.50;;;13.70;1.00;;;;;;5097545;28;20206;-81